Albany, WI (53502)

2:05 AM CST on February 09, 2016 (GMT -0600)
West Albany | | Change Station
CLOSE
Current Station
Personal Weather Station
Location: Albany, WI
Elevation: 837 ft
Nearby Weather Stations

Elev 837 ft 42.71 °N, 89.45 °W | Updated 15 seconds ago

Snow
Snow
14.7 °F
Feels Like 7 °F
N
4.5
Wind Variable Wind from NW
Gusts 10.7 mph

Today
High -- | Low -- °F
--% Chance of Precip.
Yesterday
High -- | Low -- °F
Precip. -- in
Pressure 29.77 in
Visibility 7.0 miles
Clouds Mostly Cloudy 1700 ft
Mostly Cloudy 2800 ft
Overcast 3600 ft
Windchill 7 °F
Dew Point 6 °F
Humidity 69%
Rainfall 0.00 in
Snow Depth Not available.
7:03 AM 5:21 PM
New Moon, 1% visible
METAR KEFT 090755Z AUTO 33009G16KT 7SM -SN BKN017 BKN028 OVC036 M10/M12 A2977 RMK AO2
Pressure 29.77 in
Visibility 7.0 miles
Clouds Mostly Cloudy 1700 ft
Mostly Cloudy 2800 ft
Overcast 3600 ft
Windchill 7 °F
Dew Point 6 °F
Humidity 69%
Rainfall 0.00 in
Snow Depth Not available.
7:03 AM 5:21 PM
New Moon, 1% visible
METAR KEFT 090755Z AUTO 33009G16KT 7SM -SN BKN017 BKN028 OVC036 M10/M12 A2977 RMK AO2

10-Day Weather Forecast

Almanac

Astronomy

Feb. 09, 2016 Rise Set
Actual Time
Civil Twilight
Nautical Twilight
Astronomical Twilight
Moon
Length of Visible Light
Length of Day
Tomorrow will be .
, % of the Moon is Illuminated

Today's Extremes

State Highs State Lows

Community

WunderPhotos

Upload Photos

1,891,571 photos uploaded!

WunderBlog® & News

Nearby

Air Quality

  Air Quality AQ Index Pollutant
Not available.

Snow Depth

Station Depth Elevation

Earthquake Activity

City Distance Mag. Time & Date
Minimum magnitude displayed is 2.5.

Coastal Water Temperatures

Place Temperature

Stations

Nearby Weather Stations

Station Location Temp. Windchill Dew Point Humidity Wind Precip. Elev Updated Type
                   

Watches & Warnings

There are currently no watches in effect.